createdAt,value
2019-05-30T00:01:14.972Z,16.65
2019-05-30T00:03:43.864Z,16.60
2019-05-30T00:06:12.771Z,16.54
2019-05-30T00:08:41.787Z,16.43
2019-05-30T00:11:10.595Z,16.38
2019-05-30T00:13:39.510Z,16.41
2019-05-30T00:16:08.432Z,16.47
2019-05-30T00:18:37.343Z,16.48
2019-05-30T00:21:06.247Z,16.49
2019-05-30T00:23:35.163Z,16.52
2019-05-30T00:26:04.083Z,16.54
2019-05-30T00:28:33.009Z,16.50
2019-05-30T00:31:02.562Z,16.50
2019-05-30T00:33:30.851Z,16.51
2019-05-30T00:35:59.924Z,16.42
2019-05-30T00:38:28.648Z,16.45
2019-05-30T00:40:57.814Z,16.43
2019-05-30T00:43:26.476Z,16.46
2019-05-30T00:45:55.889Z,16.49
2019-05-30T00:48:24.303Z,16.50
2019-05-30T00:50:53.234Z,16.48
2019-05-30T00:53:22.135Z,16.49
2019-05-30T00:55:51.076Z,16.49
2019-05-30T00:58:20.024Z,16.42
2019-05-30T01:00:48.937Z,16.49
2019-05-30T01:03:17.850Z,16.50
2019-05-30T01:05:46.780Z,16.55
2019-05-30T01:08:15.699Z,16.53
2019-05-30T01:10:44.591Z,16.53
2019-05-30T01:13:13.516Z,16.46
2019-05-30T01:15:42.441Z,16.46
2019-05-30T01:18:11.362Z,16.46
2019-05-30T01:20:40.277Z,16.50
2019-05-30T01:23:09.233Z,16.50
2019-05-30T01:25:38.136Z,16.53
2019-05-30T01:28:07.877Z,16.51
2019-05-30T01:30:36.002Z,16.43
2019-05-30T01:33:05.883Z,16.48
2019-05-30T01:35:33.872Z,16.53
2019-05-30T01:38:03.954Z,16.53
2019-05-30T01:40:31.795Z,16.57
2019-05-30T01:43:01.974Z,16.50
2019-05-30T01:45:29.565Z,16.47
2019-05-30T01:47:58.472Z,16.76
2019-05-30T01:50:27.421Z,16.57
2019-05-30T01:52:56.322Z,16.51
2019-05-30T01:55:25.238Z,16.43
2019-05-30T01:57:54.137Z,16.35
2019-05-30T02:00:23.645Z,16.28
2019-05-30T02:02:52.563Z,16.15
2019-05-30T02:05:21.492Z,16.01
2019-05-30T02:07:50.388Z,16.14
2019-05-30T02:10:19.313Z,16.10
2019-05-30T02:12:48.207Z,16.16
2019-05-30T02:15:17.280Z,16.05
2019-05-30T02:17:46.211Z,15.81
2019-05-30T02:20:15.107Z,15.90
2019-05-30T02:22:44.053Z,16.07
2019-05-30T02:25:12.973Z,15.87
2019-05-30T02:27:41.874Z,16.30
2019-05-30T02:30:14.297Z,16.08
2019-05-30T02:32:39.745Z,16.18
2019-05-30T02:35:12.156Z,16.10
2019-05-30T02:37:37.612Z,15.88
2019-05-30T02:40:09.913Z,15.97
2019-05-30T02:42:35.536Z,15.96
2019-05-30T02:45:05.743Z,15.95
2019-05-30T02:47:33.452Z,16.03
2019-05-30T02:50:04.036Z,15.94
2019-05-30T02:52:31.316Z,15.99
2019-05-30T02:55:01.804Z,15.87
2019-05-30T02:57:29.105Z,15.96
2019-05-30T02:59:58.020Z,15.78
2019-05-30T03:02:27.000Z,15.85
2019-05-30T03:04:55.835Z,16.04
2019-05-30T03:07:24.769Z,15.81
2019-05-30T03:09:53.651Z,15.82
2019-05-30T03:12:22.562Z,15.85
2019-05-30T03:14:51.441Z,15.67
2019-05-30T03:17:20.358Z,15.66
2019-05-30T03:19:49.278Z,15.81
2019-05-30T03:22:18.185Z,15.67
2019-05-30T03:24:47.069Z,15.63
2019-05-30T03:27:15.996Z,15.86
2019-05-30T03:29:44.885Z,15.74
2019-05-30T03:33:00.722Z,15.65
2019-05-30T03:34:42.706Z,15.45
2019-05-30T03:37:23.064Z,15.47
2019-05-30T03:39:40.505Z,15.57
2019-05-30T03:42:11.309Z,15.68
2019-05-30T03:44:38.320Z,15.63
2019-05-30T03:47:08.576Z,15.68
2019-05-30T03:49:36.434Z,15.59
2019-05-30T03:52:08.147Z,15.62
2019-05-30T03:54:34.434Z,15.67
2019-05-30T03:57:11.097Z,15.49
2019-05-30T03:59:41.061Z,15.51
2019-05-30T04:02:18.983Z,15.96
2019-05-30T04:04:48.551Z,15.65
2019-05-30T04:07:19.455Z,15.53
2019-05-30T04:09:46.525Z,15.94
2019-05-30T04:12:36.233Z,15.80
2019-05-30T04:15:07.974Z,15.25
2019-05-30T04:17:35.247Z,15.22
2019-05-30T04:20:07.006Z,14.96
2019-05-30T04:22:34.170Z,15.08
2019-05-30T04:25:03.133Z,14.99
2019-05-30T04:27:32.015Z,14.88
2019-05-30T04:30:00.916Z,14.73
2019-05-30T04:32:29.822Z,14.81
2019-05-30T04:34:58.730Z,14.83
2019-05-30T04:37:27.638Z,14.82
2019-05-30T04:39:56.531Z,14.75
2019-05-30T04:42:25.434Z,14.63
2019-05-30T04:44:54.312Z,14.79
2019-05-30T04:47:23.232Z,14.74
2019-05-30T04:49:52.125Z,14.68
2019-05-30T04:52:24.582Z,14.85
2019-05-30T04:54:49.946Z,14.83
2019-05-30T04:57:19.989Z,14.80
2019-05-30T04:59:47.733Z,14.91
2019-05-30T05:02:18.775Z,14.66
2019-05-30T05:04:45.522Z,14.75
2019-05-30T05:07:15.669Z,14.64
2019-05-30T05:09:43.338Z,14.52
2019-05-30T05:12:12.258Z,14.56
2019-05-30T05:14:41.160Z,14.50
2019-05-30T05:17:10.483Z,14.68
2019-05-30T05:19:39.391Z,14.62
2019-05-30T05:22:08.467Z,14.56
2019-05-30T05:24:37.360Z,14.62
2019-05-30T05:27:09.754Z,14.71
2019-05-30T05:29:35.358Z,14.73
2019-05-30T05:32:04.332Z,14.68
2019-05-30T05:34:33.236Z,14.67
2019-05-30T05:37:02.163Z,14.58
2019-05-30T05:39:31.054Z,14.66
2019-05-30T05:41:59.965Z,14.84
2019-05-30T05:44:28.870Z,14.77
2019-05-30T05:46:57.772Z,14.77
2019-05-30T05:49:26.656Z,14.81
2019-05-30T05:51:55.597Z,14.76
2019-05-30T05:54:25.013Z,14.78
2019-05-30T05:56:53.406Z,14.72
2019-05-30T05:59:23.017Z,14.94
2019-05-30T06:01:51.219Z,15.33
2019-05-30T06:04:21.123Z,14.97
2019-05-30T06:06:49.022Z,14.98
2019-05-30T06:09:18.354Z,15.10
2019-05-30T06:11:49.045Z,15.01
2019-05-30T06:14:15.730Z,14.93
2019-05-30T06:16:44.648Z,14.84
2019-05-30T06:19:13.546Z,14.90
2019-05-30T06:21:53.604Z,14.88
2019-05-30T06:24:11.410Z,15.00
2019-05-30T06:26:40.342Z,14.94
2019-05-30T06:29:09.267Z,15.01
2019-05-30T06:31:38.173Z,15.03
2019-05-30T06:34:07.310Z,15.01
2019-05-30T06:36:36.193Z,14.89
2019-05-30T06:39:08.053Z,14.76
2019-05-30T06:41:36.948Z,14.67
2019-05-30T06:44:06.061Z,14.70
2019-05-30T06:46:34.937Z,14.86
2019-05-30T06:49:03.913Z,14.84
2019-05-30T06:51:32.846Z,14.90
2019-05-30T06:54:01.757Z,14.96
2019-05-30T06:56:31.582Z,15.10
2019-05-30T06:58:59.547Z,15.15
2019-05-30T07:01:28.485Z,15.14
2019-05-30T07:03:57.537Z,14.98
2019-05-30T07:06:27.474Z,15.04
2019-05-30T07:08:55.180Z,15.05
2019-05-30T07:11:24.725Z,15.06
2019-05-30T07:13:53.013Z,14.86
2019-05-30T07:16:23.290Z,15.00
2019-05-30T07:18:50.833Z,15.16
2019-05-30T07:21:19.751Z,15.10
2019-05-30T07:23:48.643Z,15.16
2019-05-30T07:26:17.560Z,15.01
2019-05-30T07:28:46.450Z,15.13
2019-05-30T07:31:15.358Z,15.16
2019-05-30T07:33:44.279Z,15.11
2019-05-30T07:36:16.979Z,15.16
2019-05-30T07:38:49.063Z,15.16
2019-05-30T07:41:18.340Z,14.95
2019-05-30T07:43:47.554Z,15.55
2019-05-30T07:46:19.509Z,15.21
2019-05-30T07:48:51.176Z,15.29
2019-05-30T07:51:24.192Z,15.35
2019-05-30T07:53:51.903Z,15.38
2019-05-30T07:56:22.822Z,15.53
2019-05-30T07:58:52.099Z,15.22
2019-05-30T08:01:22.062Z,15.30
2019-05-30T08:03:51.160Z,15.36
2019-05-30T08:06:22.552Z,15.77
2019-05-30T08:08:56.504Z,15.69
2019-05-30T08:11:23.288Z,15.54
2019-05-30T08:13:52.374Z,15.57
2019-05-30T08:16:21.552Z,15.44
2019-05-30T08:18:50.502Z,15.60
2019-05-30T08:21:20.589Z,15.59
2019-05-30T08:23:52.264Z,15.54
2019-05-30T08:26:21.557Z,15.58
2019-05-30T08:28:55.254Z,15.56
2019-05-30T08:34:10.784Z,15.74
2019-05-30T08:36:40.205Z,15.72
2019-05-30T08:39:09.722Z,15.85
2019-05-30T08:41:39.506Z,15.87
2019-05-30T08:44:08.514Z,15.90
2019-05-30T08:46:46.595Z,15.91
2019-05-30T08:49:15.756Z,15.73
2019-05-30T08:51:47.673Z,15.88
2019-05-30T08:54:16.771Z,15.99
2019-05-30T08:56:50.815Z,16.12
2019-05-30T08:59:20.925Z,16.11
2019-05-30T09:01:53.337Z,15.96
2019-05-30T09:04:21.958Z,15.98
2019-05-30T09:06:51.353Z,16.11
2019-05-30T09:09:22.720Z,16.14
2019-05-30T09:11:52.005Z,16.45
2019-05-30T09:14:21.329Z,16.28
2019-05-30T09:16:51.151Z,16.51
2019-05-30T09:19:22.176Z,16.52
2019-05-30T09:21:49.288Z,16.44
2019-05-30T09:24:18.572Z,16.33
2019-05-30T09:26:50.312Z,16.30
2019-05-30T09:29:16.914Z,16.30
2019-05-30T09:31:48.748Z,16.36
2019-05-30T09:34:18.040Z,16.54
2019-05-30T09:36:47.212Z,16.36
2019-05-30T09:39:19.385Z,16.33
2019-05-30T09:41:48.009Z,16.49
2019-05-30T09:44:14.769Z,16.23
2019-05-30T09:46:44.307Z,16.32
2019-05-30T09:49:16.453Z,16.44
2019-05-30T09:51:45.230Z,16.58
2019-05-30T09:54:17.041Z,16.38
2019-05-30T09:56:48.554Z,16.66
2019-05-30T09:59:19.827Z,16.57
2019-05-30T10:01:50.159Z,16.82
2019-05-30T10:04:19.170Z,16.57
2019-05-30T10:06:53.908Z,16.45
2019-05-30T10:09:24.893Z,16.64
2019-05-30T10:11:59.989Z,16.83
2019-05-30T10:14:29.386Z,16.81
2019-05-30T10:16:58.380Z,16.79
2019-05-30T10:19:27.594Z,16.78
2019-05-30T10:21:57.282Z,17.07
2019-05-30T10:24:28.407Z,17.18
2019-05-30T10:26:59.861Z,17.32
2019-05-30T10:29:27.265Z,17.23
2019-05-30T10:31:56.967Z,17.45
2019-05-30T10:34:36.107Z,17.40
2019-05-30T10:37:05.369Z,17.49
2019-05-30T10:39:34.691Z,17.59
2019-05-30T10:42:06.668Z,17.70
2019-05-30T10:44:35.806Z,17.64
2019-05-30T10:47:04.971Z,17.72
2019-05-30T10:49:35.338Z,17.57
2019-05-30T10:52:05.749Z,17.70
2019-05-30T10:54:34.800Z,17.70
2019-05-30T10:57:03.905Z,17.75
2019-05-30T10:59:33.007Z,17.78
2019-05-30T11:02:07.198Z,17.84
2019-05-30T11:04:34.237Z,17.80
2019-05-30T11:07:22.841Z,17.58
2019-05-30T11:09:54.832Z,17.75
2019-05-30T11:12:23.832Z,17.78
2019-05-30T11:14:53.757Z,17.78
2019-05-30T11:17:22.798Z,17.76
2019-05-30T11:19:52.062Z,17.68
2019-05-30T11:22:21.096Z,17.68
2019-05-30T11:24:50.346Z,17.59
2019-05-30T11:27:19.203Z,17.61
2019-05-30T11:29:48.713Z,17.64
2019-05-30T11:32:19.893Z,17.42
2019-05-30T11:34:51.541Z,17.80
2019-05-30T11:37:23.097Z,18.34
2019-05-30T11:39:51.046Z,18.16
2019-05-30T11:42:19.668Z,18.13
2019-05-30T11:44:49.709Z,18.12
2019-05-30T11:47:18.668Z,18.14
2019-05-30T11:49:48.040Z,18.01
2019-05-30T11:52:19.499Z,18.49
2019-05-30T11:54:46.720Z,18.27
2019-05-30T11:57:17.799Z,18.16
2019-05-30T11:59:46.898Z,18.09
2019-05-30T12:02:16.268Z,17.73
2019-05-30T12:04:45.525Z,17.78
2019-05-30T12:07:14.776Z,17.33
2019-05-30T12:09:43.909Z,17.52
2019-05-30T12:12:13.375Z,17.65
2019-05-30T12:14:42.790Z,17.61
2019-05-30T12:17:11.912Z,17.57
2019-05-30T12:19:41.067Z,17.71
2019-05-30T12:22:12.159Z,17.77
2019-05-30T12:24:41.527Z,17.98
2019-05-30T12:27:10.717Z,18.26
2019-05-30T12:29:42.547Z,18.27
2019-05-30T12:32:12.182Z,18.46
2019-05-30T12:34:41.390Z,18.49
2019-05-30T12:37:10.471Z,18.56
2019-05-30T12:39:39.478Z,18.86
2019-05-30T12:42:11.433Z,18.86
2019-05-30T12:44:41.486Z,19.02
2019-05-30T12:47:10.757Z,18.81
2019-05-30T12:49:39.921Z,18.67
2019-05-30T12:52:11.700Z,19.05
2019-05-30T12:54:40.996Z,19.16
2019-05-30T12:57:10.091Z,19.49
2019-05-30T12:59:39.386Z,19.72
2019-05-30T13:02:11.331Z,19.80
2019-05-30T13:04:46.046Z,19.55
2019-05-30T13:07:17.390Z,19.54
2019-05-30T13:09:46.698Z,18.97
2019-05-30T13:12:18.304Z,19.07
2019-05-30T13:14:50.098Z,18.95
2019-05-30T13:17:19.279Z,19.32
2019-05-30T13:19:48.499Z,19.89
2019-05-30T13:22:20.790Z,20.03
2019-05-30T13:24:49.953Z,19.76
2019-05-30T13:27:19.267Z,19.99
2019-05-30T13:29:48.659Z,20.31
2019-05-30T13:32:17.672Z,20.14
2019-05-30T13:34:46.945Z,20.82
2019-05-30T13:37:15.963Z,20.73
2019-05-30T13:39:45.313Z,20.74
2019-05-30T13:42:16.449Z,20.88
2019-05-30T13:44:45.656Z,20.77
2019-05-30T13:47:14.736Z,21.12
2019-05-30T13:49:43.911Z,20.76
2019-05-30T13:52:13.257Z,20.49
2019-05-30T13:54:42.414Z,20.68
2019-05-30T13:57:16.744Z,20.50
2019-05-30T13:59:48.374Z,20.89
2019-05-30T14:02:17.700Z,21.17
2019-05-30T14:04:47.296Z,20.90
2019-05-30T14:07:16.475Z,21.05
2019-05-30T14:09:45.620Z,21.71
2019-05-30T14:12:14.972Z,21.37
2019-05-30T14:14:44.237Z,21.61
2019-05-30T14:17:13.787Z,21.14
2019-05-30T14:19:43.215Z,21.29
2019-05-30T14:22:12.301Z,21.17
2019-05-30T14:24:45.988Z,21.45
2019-05-30T14:27:15.244Z,21.50
2019-05-30T14:29:44.415Z,21.33
2019-05-30T14:32:14.038Z,21.10
2019-05-30T14:34:43.210Z,21.13
2019-05-30T14:37:12.646Z,21.27
2019-05-30T14:39:41.476Z,21.17
2019-05-30T14:42:11.423Z,21.29
2019-05-30T14:44:40.665Z,21.25
2019-05-30T14:47:12.456Z,21.40
2019-05-30T14:49:41.163Z,21.63
2019-05-30T14:52:11.723Z,21.48
2019-05-30T14:54:42.763Z,21.55
2019-05-30T14:57:13.047Z,21.60
2019-05-30T14:59:41.455Z,21.45
2019-05-30T15:02:17.449Z,21.84
2019-05-30T15:04:48.397Z,21.71
2019-05-30T15:07:17.603Z,21.83
2019-05-30T15:09:46.713Z,21.88
2019-05-30T15:12:18.827Z,21.92
2019-05-30T15:14:47.912Z,21.71
2019-05-30T15:17:19.370Z,21.95
2019-05-30T15:19:48.952Z,22.28
2019-05-30T15:22:20.629Z,22.19
2019-05-30T15:24:52.548Z,22.26
2019-05-30T15:27:21.743Z,22.28
2019-05-30T15:29:51.960Z,22.26
2019-05-30T15:32:23.514Z,22.26
2019-05-30T15:34:52.633Z,22.49
2019-05-30T15:37:21.747Z,22.73
2019-05-30T15:39:50.934Z,22.97
2019-05-30T15:42:21.936Z,22.95
2019-05-30T15:44:58.466Z,22.95
2019-05-30T15:47:29.919Z,22.79
2019-05-30T15:50:01.062Z,22.61
2019-05-30T15:52:30.179Z,22.53
2019-05-30T15:54:59.417Z,22.54
2019-05-30T15:57:28.506Z,22.48
2019-05-30T16:00:04.068Z,22.72
2019-05-30T16:02:33.341Z,22.74
2019-05-30T16:05:02.518Z,22.78
2019-05-30T16:07:31.539Z,22.66
2019-05-30T16:10:02.119Z,22.66
2019-05-30T16:12:33.446Z,23.05
2019-05-30T16:15:04.827Z,22.90
2019-05-30T16:17:34.297Z,22.94
2019-05-30T16:20:03.481Z,22.63
2019-05-30T16:22:32.387Z,22.56
2019-05-30T16:25:01.314Z,22.32
2019-05-30T16:27:31.208Z,22.38
2019-05-30T16:29:59.113Z,22.34
2019-05-30T16:32:28.013Z,22.70
2019-05-30T16:34:56.919Z,22.40
2019-05-30T16:37:26.346Z,22.37
2019-05-30T16:40:05.468Z,22.56
2019-05-30T16:42:23.611Z,22.21
2019-05-30T16:44:52.515Z,22.20
2019-05-30T16:47:22.458Z,22.23
2019-05-30T16:49:50.309Z,22.39
2019-05-30T16:52:19.320Z,22.37
2019-05-30T16:54:48.097Z,22.28
2019-05-30T16:57:17.046Z,22.17
2019-05-30T16:59:45.931Z,22.05
2019-05-30T17:02:14.882Z,22.08
2019-05-30T17:04:43.755Z,22.02
2019-05-30T17:07:12.674Z,22.01
2019-05-30T17:09:41.587Z,21.82
2019-05-30T17:12:10.492Z,21.73
2019-05-30T17:14:39.391Z,21.56
2019-05-30T17:17:08.376Z,21.34
2019-05-30T17:19:39.268Z,21.50
2019-05-30T17:22:06.284Z,21.40
2019-05-30T17:24:35.167Z,21.78
2019-05-30T17:27:04.109Z,21.56
2019-05-30T17:29:32.986Z,21.56
2019-05-30T17:32:01.867Z,21.63
2019-05-30T17:34:30.769Z,21.77
2019-05-30T17:36:59.684Z,21.88
2019-05-30T17:39:28.914Z,21.80
2019-05-30T17:41:57.462Z,21.86
2019-05-30T17:44:27.201Z,21.79
2019-05-30T17:46:55.254Z,21.62
2019-05-30T17:49:24.145Z,21.69
2019-05-30T17:51:53.046Z,21.60
2019-05-30T17:54:21.921Z,21.67
2019-05-30T17:56:50.813Z,21.98
2019-05-30T17:59:20.194Z,21.82
2019-05-30T18:01:48.622Z,21.83
2019-05-30T18:04:17.496Z,21.79
2019-05-30T18:06:46.401Z,21.65
2019-05-30T18:09:15.313Z,21.63
2019-05-30T18:11:44.194Z,21.45
2019-05-30T18:14:13.104Z,21.22
2019-05-30T18:16:42.015Z,21.13
2019-05-30T18:19:10.957Z,20.95
2019-05-30T18:21:39.844Z,20.98
2019-05-30T18:24:08.775Z,20.92
2019-05-30T18:26:37.641Z,20.85
2019-05-30T18:29:06.666Z,20.81
2019-05-30T18:31:35.555Z,20.61
2019-05-30T18:34:04.486Z,20.60
2019-05-30T18:36:33.388Z,20.59
2019-05-30T18:39:02.298Z,20.52
2019-05-30T18:41:31.201Z,20.45
2019-05-30T18:44:00.071Z,20.43
2019-05-30T18:46:29.203Z,20.40
2019-05-30T18:48:57.848Z,20.33
2019-05-30T18:51:26.757Z,20.27
2019-05-30T18:53:55.656Z,20.58
2019-05-30T18:56:24.630Z,20.43
2019-05-30T18:58:53.442Z,20.40
2019-05-30T19:01:22.348Z,20.41
2019-05-30T19:03:51.277Z,20.34
2019-05-30T19:06:20.139Z,20.36
2019-05-30T19:08:49.002Z,20.38
2019-05-30T19:11:27.299Z,20.37
2019-05-30T19:13:46.828Z,20.35
2019-05-30T19:16:15.712Z,20.34
2019-05-30T19:18:44.583Z,20.33
2019-05-30T19:21:13.515Z,20.17
2019-05-30T19:23:42.418Z,20.19
2019-05-30T19:26:11.627Z,20.17
2019-05-30T19:28:40.225Z,20.11
2019-05-30T19:31:09.188Z,20.47
2019-05-30T19:33:38.085Z,20.26
2019-05-30T19:36:07.093Z,20.55
2019-05-30T19:38:36.010Z,20.64
2019-05-30T19:41:04.968Z,20.39
2019-05-30T19:43:33.883Z,20.32
2019-05-30T19:46:02.770Z,20.28
2019-05-30T19:48:32.255Z,20.25
2019-05-30T19:51:00.543Z,20.22
2019-05-30T19:53:30.696Z,20.21
2019-05-30T19:55:58.328Z,20.14
2019-05-30T19:58:27.222Z,20.14
2019-05-30T20:00:58.952Z,20.10
2019-05-30T20:03:36.480Z,20.06
2019-05-30T20:05:54.047Z,20.06
2019-05-30T20:08:22.886Z,20.05
2019-05-30T20:10:51.783Z,20.07
2019-05-30T20:13:20.683Z,20.04
2019-05-30T20:15:49.593Z,19.99
2019-05-30T20:18:18.491Z,19.93
2019-05-30T20:20:56.968Z,19.89
2019-05-30T20:23:16.271Z,19.89
2019-05-30T20:25:46.081Z,19.89
2019-05-30T20:28:14.046Z,19.86
2019-05-30T20:30:43.317Z,19.81
2019-05-30T20:33:11.830Z,19.77
2019-05-30T20:35:42.151Z,19.72
2019-05-30T20:38:09.824Z,19.70
2019-05-30T20:40:38.926Z,19.64
2019-05-30T20:43:07.616Z,19.65
2019-05-30T20:45:39.555Z,19.62
2019-05-30T20:48:05.401Z,19.65
2019-05-30T20:50:35.012Z,19.66
2019-05-30T20:53:03.209Z,19.65
2019-05-30T20:55:32.196Z,19.56
2019-05-30T20:58:01.001Z,19.58
2019-05-30T21:00:37.786Z,19.44
2019-05-30T21:03:05.651Z,19.48
2019-05-30T21:05:35.627Z,19.43
2019-05-30T21:08:05.803Z,19.83
2019-05-30T21:10:32.428Z,19.60
2019-05-30T21:13:01.559Z,19.52
2019-05-30T21:15:32.146Z,19.45
2019-05-30T21:18:01.023Z,19.49
2019-05-30T21:20:29.926Z,19.52
2019-05-30T21:22:58.819Z,19.56
2019-05-30T21:25:27.696Z,19.57
2019-05-30T21:27:56.598Z,19.57
2019-05-30T21:30:25.503Z,19.53
2019-05-30T21:32:54.563Z,19.49
2019-05-30T21:35:23.445Z,19.49
2019-05-30T21:37:52.293Z,19.44
2019-05-30T21:40:21.175Z,19.49
2019-05-30T21:43:04.852Z,19.46
2019-05-30T21:45:18.976Z,19.48
2019-05-30T21:47:48.933Z,19.50
2019-05-30T21:50:16.754Z,19.51
2019-05-30T21:52:46.311Z,19.49
2019-05-30T21:55:14.594Z,19.48
2019-05-30T21:57:43.926Z,19.54
2019-05-30T22:00:13.375Z,19.86
2019-05-30T22:02:42.327Z,19.66
2019-05-30T22:05:11.193Z,19.65
2019-05-30T22:07:40.924Z,19.55
2019-05-30T22:10:09.003Z,19.52
2019-05-30T22:12:37.891Z,19.41
2019-05-30T22:15:06.848Z,19.49
2019-05-30T22:17:35.731Z,19.47
2019-05-30T22:20:05.064Z,19.48
2019-05-30T22:22:33.955Z,19.47
2019-05-30T22:25:02.869Z,19.47
2019-05-30T22:27:31.768Z,19.51
2019-05-30T22:30:00.658Z,19.47
2019-05-30T22:32:29.561Z,19.51
2019-05-30T22:34:58.452Z,19.46
2019-05-30T22:37:27.331Z,19.46
2019-05-30T22:39:56.259Z,19.42
2019-05-30T22:42:25.137Z,19.38
2019-05-30T22:44:54.036Z,19.39
2019-05-30T22:47:22.913Z,19.29
2019-05-30T22:49:52.940Z,19.34
2019-05-30T22:52:20.713Z,19.32
2019-05-30T22:54:49.609Z,19.29
2019-05-30T22:57:18.479Z,19.27
2019-05-30T22:59:47.370Z,19.27
2019-05-30T23:02:16.273Z,19.30
2019-05-30T23:04:45.978Z,19.23
2019-05-30T23:07:14.057Z,19.23
2019-05-30T23:09:43.167Z,19.25
2019-05-30T23:12:12.057Z,19.11
2019-05-30T23:14:40.956Z,19.33
2019-05-30T23:17:09.886Z,19.20
2019-05-30T23:19:38.769Z,19.31
2019-05-30T23:22:07.672Z,19.31
2019-05-30T23:24:36.572Z,19.22
2019-05-30T23:27:08.254Z,19.26
2019-05-30T23:29:34.387Z,19.24
2019-05-30T23:32:03.308Z,19.21
2019-05-30T23:34:32.186Z,19.26
2019-05-30T23:37:01.101Z,19.19
2019-05-30T23:39:30.019Z,19.21
2019-05-30T23:41:59.332Z,19.27
2019-05-30T23:44:27.841Z,19.22
2019-05-30T23:46:57.838Z,19.25
2019-05-30T23:49:25.634Z,19.23
2019-05-30T23:51:54.753Z,19.18
2019-05-30T23:54:23.438Z,19.15
2019-05-30T23:56:52.461Z,19.15
2019-05-30T23:59:21.236Z,19.19
